Dededo, Guam
Current Conditions -  °F | °C
As of 9:54 PM on Sunday 23 Nov 2014 (Local Time) from PGUM Reporting Station
Few Clouds Few Clouds  
Wind Chill: 81°   Ceiling: Unl
Heat Index: 88°   Visibility: 10mi
Dew Point: 77°   Wind: 8mph
Humidity: 88%   Direction: 70°ENE
Pressure: 29.91"   Gusts: NA
Location:  13.51°N, 144.84°E
Report Text: PGUM 231154Z 07007KT 10SM FEW020 27/25 A2991 RMK AO2 SLP121 60000 70073 T02720250 10272 20261 51009
Loading
Personal Weather Stations






























Interactive Weather Map New forecast layout! Learn more

10-Day Weather Forecast

Advertisements
Track Severe Weather on mobile